createdAt,value
2022-11-01T00:00:33.806Z,0.00
2022-11-01T00:01:33.925Z,0.00
2022-11-01T00:02:34.029Z,0.00
2022-11-01T00:03:33.907Z,0.00
2022-11-01T00:05:33.987Z,0.00
2022-11-01T00:06:33.998Z,0.00
2022-11-01T00:07:34.126Z,0.00
2022-11-01T00:08:34.057Z,0.00
2022-11-01T00:09:34.103Z,0.00
2022-11-01T00:10:34.231Z,0.00
2022-11-01T00:11:34.152Z,0.00
2022-11-01T00:12:34.186Z,0.00
2022-11-01T00:13:34.218Z,0.00
2022-11-01T00:14:34.251Z,0.00
2022-11-01T00:15:34.280Z,0.00
2022-11-01T00:16:34.312Z,0.00
2022-11-01T00:17:34.344Z,0.00
2022-11-01T00:18:34.381Z,0.00
2022-11-01T00:19:34.408Z,0.00
2022-11-01T00:20:34.454Z,0.00
2022-11-01T00:21:34.517Z,0.00
2022-11-01T00:22:34.507Z,0.00
2022-11-01T00:23:34.533Z,0.00
2022-11-01T00:24:34.570Z,0.00
2022-11-01T00:25:34.599Z,0.00
2022-11-01T00:26:34.690Z,0.00
2022-11-01T00:27:34.661Z,0.00
2022-11-01T00:28:34.691Z,0.00
2022-11-01T00:29:34.727Z,0.00
2022-11-01T00:30:34.760Z,0.00
2022-11-01T00:31:34.790Z,0.00
2022-11-01T00:32:34.822Z,0.00
2022-11-01T00:33:34.857Z,0.00
2022-11-01T00:34:34.884Z,0.00
2022-11-01T00:35:34.922Z,0.00
2022-11-01T00:36:34.958Z,0.00
2022-11-01T00:37:34.996Z,0.00
2022-11-01T00:38:35.018Z,0.00
2022-11-01T00:39:35.074Z,0.00
2022-11-01T00:41:35.109Z,0.00
2022-11-01T00:42:35.137Z,0.00
2022-11-01T00:43:35.231Z,0.00
2022-11-01T00:44:35.207Z,0.00
2022-11-01T00:45:35.237Z,0.00
2022-11-01T00:46:35.267Z,0.00
2022-11-01T00:47:35.300Z,0.00
2022-11-01T00:48:35.330Z,0.00
2022-11-01T00:50:35.394Z,0.00
2022-11-01T00:51:35.425Z,0.00
2022-11-01T00:52:35.457Z,0.00
2022-11-01T00:53:35.508Z,0.00
2022-11-01T00:54:35.523Z,0.00
2022-11-01T00:55:35.555Z,0.00
2022-11-01T00:57:35.618Z,0.00
2022-11-01T00:59:40.636Z,0.00
2022-11-01T01:00:35.712Z,0.00
2022-11-01T01:02:35.877Z,0.00
2022-11-01T01:03:35.812Z,0.00
2022-11-01T01:04:35.846Z,0.00
2022-11-01T01:05:35.878Z,0.00
2022-11-01T01:06:35.902Z,0.00
2022-11-01T01:07:35.936Z,0.00
2022-11-01T01:08:35.966Z,0.00
2022-11-01T01:09:36.020Z,0.00
2022-11-01T01:11:36.060Z,0.00
2022-11-01T01:12:36.095Z,0.00
2022-11-01T01:13:36.135Z,0.00
2022-11-01T01:14:36.160Z,0.00
2022-11-01T01:15:36.244Z,0.00
2022-11-01T01:16:36.308Z,0.00
2022-11-01T01:17:36.251Z,0.00
2022-11-01T01:18:36.289Z,0.00
2022-11-01T01:19:36.317Z,0.00
2022-11-01T01:20:36.349Z,0.00
2022-11-01T01:21:36.385Z,0.00
2022-11-01T01:22:36.414Z,0.00
2022-11-01T01:23:36.441Z,0.00
2022-11-01T01:25:36.530Z,0.00
2022-11-01T01:26:36.538Z,0.00
2022-11-01T01:27:36.572Z,0.00
2022-11-01T01:28:41.674Z,0.00
2022-11-01T01:29:36.640Z,0.00
2022-11-01T01:30:36.669Z,0.00
2022-11-01T01:31:36.705Z,0.00
2022-11-01T01:32:36.731Z,0.00
2022-11-01T01:33:36.769Z,0.00
2022-11-01T01:34:36.796Z,0.00
2022-11-01T01:35:36.826Z,0.00
2022-11-01T01:36:36.860Z,0.00
2022-11-01T01:37:36.890Z,0.00
2022-11-01T01:38:36.932Z,0.00
2022-11-01T01:39:36.958Z,0.00
2022-11-01T01:40:37.002Z,0.00
2022-11-01T01:41:37.041Z,0.00
2022-11-01T01:42:37.051Z,0.00
2022-11-01T01:43:37.083Z,0.00
2022-11-01T01:45:37.170Z,0.00
2022-11-01T01:46:37.178Z,0.00
2022-11-01T01:47:37.213Z,0.00
2022-11-01T01:48:37.240Z,0.00
2022-11-01T01:49:40.078Z,0.00
2022-11-01T01:50:37.311Z,0.00
2022-11-01T01:52:37.386Z,0.00
2022-11-01T01:53:37.399Z,0.00
2022-11-01T01:54:37.432Z,0.00
2022-11-01T01:55:37.463Z,0.00
2022-11-01T01:56:37.492Z,0.00
2022-11-01T01:57:37.545Z,0.00
2022-11-01T01:58:37.657Z,0.00
2022-11-01T01:59:37.590Z,0.00
2022-11-01T02:01:37.808Z,0.00
2022-11-01T02:02:37.686Z,0.00
2022-11-01T02:03:37.713Z,0.00
2022-11-01T02:04:37.762Z,0.00
2022-11-01T02:05:37.778Z,0.00
2022-11-01T02:06:37.814Z,0.00
2022-11-01T02:07:37.844Z,0.00
2022-11-01T02:08:37.875Z,0.00
2022-11-01T02:09:37.903Z,0.00
2022-11-01T02:10:37.940Z,0.00
2022-11-01T02:11:38.109Z,0.00
2022-11-01T02:12:38.014Z,0.00
2022-11-01T02:13:38.057Z,0.00
2022-11-01T02:14:38.066Z,0.00
2022-11-01T02:15:38.096Z,0.00
2022-11-01T02:16:38.132Z,0.00
2022-11-01T02:17:38.162Z,0.00
2022-11-01T02:19:38.226Z,0.00
2022-11-01T02:20:38.255Z,0.00
2022-11-01T02:22:38.348Z,0.00
2022-11-01T02:23:38.354Z,0.00
2022-11-01T02:24:38.383Z,0.00
2022-11-01T02:25:38.415Z,0.00
2022-11-01T02:26:38.447Z,0.00
2022-11-01T02:27:38.479Z,0.00
2022-11-01T02:28:38.517Z,0.00
2022-11-01T02:29:38.565Z,0.00
2022-11-01T02:31:38.626Z,0.00
2022-11-01T02:32:38.637Z,0.00
2022-11-01T02:33:38.672Z,0.00
2022-11-01T02:34:38.802Z,0.00
2022-11-01T02:36:38.764Z,0.00
2022-11-01T02:37:38.792Z,0.00
2022-11-01T02:38:38.829Z,0.00
2022-11-01T02:39:38.859Z,0.00
2022-11-01T02:40:38.898Z,0.00
2022-11-01T02:41:38.924Z,0.00
2022-11-01T02:42:38.955Z,0.00
2022-11-01T02:43:38.985Z,0.00
2022-11-01T02:44:39.017Z,0.00
2022-11-01T02:45:39.068Z,0.00
2022-11-01T02:46:39.080Z,0.00
2022-11-01T02:47:39.110Z,0.00
2022-11-01T02:48:39.149Z,0.00
2022-11-01T02:49:39.175Z,0.00
2022-11-01T02:53:39.356Z,0.00
2022-11-01T02:54:39.331Z,0.00
2022-11-01T02:55:39.412Z,0.00
2022-11-01T02:56:39.397Z,0.00
2022-11-01T02:57:39.427Z,0.00
2022-11-01T02:58:39.468Z,0.00
2022-11-01T02:59:39.496Z,0.00
2022-11-01T03:00:39.531Z,0.00
2022-11-01T03:01:39.700Z,0.00
2022-11-01T03:02:39.825Z,0.00
2022-11-01T03:03:39.625Z,0.00
2022-11-01T03:04:39.649Z,0.00
2022-11-01T03:05:39.690Z,0.00
2022-11-01T03:06:39.717Z,0.00
2022-11-01T03:07:39.761Z,0.00
2022-11-01T03:08:39.790Z,0.00
2022-11-01T03:09:39.809Z,0.00
2022-11-01T03:10:39.842Z,0.00
2022-11-01T03:11:39.877Z,0.00
2022-11-01T03:12:39.903Z,0.00
2022-11-01T03:13:39.937Z,0.00
2022-11-01T03:14:39.968Z,0.00
2022-11-01T03:16:40.033Z,0.00
2022-11-01T03:17:40.084Z,0.00
2022-11-01T03:18:40.097Z,0.00
2022-11-01T03:19:40.124Z,0.00
2022-11-01T03:20:40.157Z,0.00
2022-11-01T03:21:40.190Z,0.00
2022-11-01T03:24:40.283Z,0.00
2022-11-01T03:25:40.314Z,0.00
2022-11-01T03:27:40.380Z,0.00
2022-11-01T03:28:40.418Z,0.00
2022-11-01T03:29:40.445Z,0.00
2022-11-01T03:30:40.475Z,0.00
2022-11-01T03:31:40.514Z,0.00
2022-11-01T03:32:40.537Z,0.00
2022-11-01T03:33:40.592Z,0.00
2022-11-01T03:34:40.603Z,0.00
2022-11-01T03:36:40.667Z,0.00
2022-11-01T03:37:40.697Z,0.00
2022-11-01T03:38:40.727Z,0.00
2022-11-01T03:39:40.758Z,0.00
2022-11-01T03:40:40.794Z,0.00
2022-11-01T03:41:40.823Z,0.00
2022-11-01T03:42:40.856Z,0.00
2022-11-01T03:43:40.903Z,0.00
2022-11-01T03:44:40.919Z,0.00
2022-11-01T03:45:41.078Z,0.00
2022-11-01T03:46:41.000Z,0.00
2022-11-01T03:47:41.013Z,0.00
2022-11-01T03:48:41.051Z,0.00
2022-11-01T03:49:41.097Z,0.00
2022-11-01T03:50:41.109Z,0.00
2022-11-01T03:51:41.141Z,0.00
2022-11-01T03:52:41.172Z,0.00
2022-11-01T03:53:41.203Z,0.00
2022-11-01T03:54:41.240Z,0.00
2022-11-01T03:55:41.267Z,0.00
2022-11-01T03:56:41.317Z,0.00
2022-11-01T03:57:41.331Z,0.00
2022-11-01T03:58:41.361Z,0.00
2022-11-01T03:59:41.402Z,0.00
2022-11-01T04:00:41.426Z,0.00
2022-11-01T04:01:41.652Z,0.00
2022-11-01T04:02:41.492Z,0.00
2022-11-01T04:03:41.519Z,0.00
2022-11-01T04:05:41.622Z,0.00
2022-11-01T04:06:41.614Z,0.00
2022-11-01T04:07:41.652Z,0.00
2022-11-01T04:08:41.681Z,0.00
2022-11-01T04:09:41.708Z,0.00
2022-11-01T04:10:41.739Z,0.00
2022-11-01T04:11:41.776Z,0.00
2022-11-01T04:12:41.803Z,0.00
2022-11-01T04:13:41.837Z,0.00
2022-11-01T04:14:41.869Z,0.00
2022-11-01T04:15:41.902Z,0.00
2022-11-01T04:16:41.930Z,0.00
2022-11-01T04:17:41.963Z,0.00
2022-11-01T04:18:42.054Z,0.00
2022-11-01T04:19:42.029Z,0.00
2022-11-01T04:20:42.055Z,0.00
2022-11-01T04:21:42.110Z,0.00
2022-11-01T04:22:42.119Z,0.00
2022-11-01T04:23:42.154Z,0.00
2022-11-01T04:24:42.185Z,0.00
2022-11-01T04:25:42.218Z,0.00
2022-11-01T04:26:42.248Z,0.00
2022-11-01T04:27:42.281Z,0.00
2022-11-01T04:28:42.309Z,0.00
2022-11-01T04:29:42.344Z,0.00
2022-11-01T04:30:42.376Z,0.00
2022-11-01T04:31:42.437Z,0.00
2022-11-01T04:32:42.437Z,0.00
2022-11-01T04:33:42.473Z,0.00
2022-11-01T04:34:42.505Z,0.00
2022-11-01T04:35:42.534Z,0.00
2022-11-01T04:36:42.574Z,0.00
2022-11-01T04:37:42.617Z,0.00
2022-11-01T04:38:42.628Z,0.00
2022-11-01T04:39:42.659Z,0.00
2022-11-01T04:40:42.691Z,0.00
2022-11-01T04:41:42.721Z,0.00
2022-11-01T04:42:42.760Z,0.00
2022-11-01T04:43:42.786Z,0.00
2022-11-01T04:44:42.819Z,0.00
2022-11-01T04:45:42.849Z,0.00
2022-11-01T04:46:42.884Z,0.00
2022-11-01T04:48:42.942Z,0.00
2022-11-01T04:49:42.980Z,0.00
2022-11-01T04:50:43.008Z,0.00
2022-11-01T04:51:43.060Z,0.00
2022-11-01T04:52:43.075Z,0.00
2022-11-01T04:53:43.125Z,0.00
2022-11-01T04:54:43.135Z,0.00
2022-11-01T04:55:43.169Z,0.00
2022-11-01T04:56:43.196Z,0.00
2022-11-01T04:57:43.231Z,0.00
2022-11-01T04:58:46.239Z,0.00
2022-11-01T04:59:43.302Z,0.00
2022-11-01T05:00:43.371Z,0.00
2022-11-01T05:01:43.477Z,0.00
2022-11-01T05:02:43.387Z,0.00
2022-11-01T05:03:43.425Z,0.00
2022-11-01T05:04:43.450Z,0.00
2022-11-01T05:05:43.512Z,0.00
2022-11-01T05:07:43.547Z,0.00
2022-11-01T05:08:43.585Z,0.00
2022-11-01T05:09:43.630Z,0.00
2022-11-01T05:10:43.641Z,0.00
2022-11-01T05:11:43.672Z,0.00
2022-11-01T05:12:43.707Z,0.00
2022-11-01T05:13:43.734Z,0.00
2022-11-01T05:14:43.768Z,0.00
2022-11-01T05:15:59.619Z,0.00
2022-11-01T05:16:43.831Z,0.00
2022-11-01T05:17:43.860Z,0.00
2022-11-01T05:18:43.894Z,0.00
2022-11-01T05:19:43.929Z,0.00
2022-11-01T05:20:43.959Z,0.00
2022-11-01T05:21:43.994Z,0.00
2022-11-01T05:22:44.022Z,0.00
2022-11-01T05:23:44.058Z,0.00
2022-11-01T05:24:44.091Z,0.00
2022-11-01T05:25:44.136Z,0.00
2022-11-01T05:26:44.155Z,0.00
2022-11-01T05:27:44.181Z,0.00
2022-11-01T05:28:44.210Z,0.00
2022-11-01T05:29:44.241Z,0.00
2022-11-01T05:30:44.287Z,0.00
2022-11-01T05:31:44.305Z,0.00
2022-11-01T05:32:44.340Z,0.00
2022-11-01T05:33:44.374Z,0.00
2022-11-01T05:34:44.407Z,0.00
2022-11-01T05:35:44.431Z,0.00
2022-11-01T05:36:44.464Z,0.00
2022-11-01T05:37:44.497Z,0.00
2022-11-01T05:38:44.528Z,0.00
2022-11-01T05:39:44.556Z,0.00
2022-11-01T05:40:44.590Z,0.00
2022-11-01T05:41:44.686Z,0.00
2022-11-01T05:42:44.654Z,0.00
2022-11-01T05:43:44.685Z,0.00
2022-11-01T05:44:44.725Z,0.00
2022-11-01T05:45:44.757Z,0.00
2022-11-01T05:46:44.783Z,0.00
2022-11-01T05:47:44.812Z,0.00
2022-11-01T05:48:44.846Z,0.00
2022-11-01T05:49:44.874Z,0.00
2022-11-01T05:50:44.908Z,0.00
2022-11-01T05:51:44.938Z,0.00
2022-11-01T05:52:44.968Z,0.00
2022-11-01T05:53:45.004Z,0.00
2022-11-01T05:54:45.045Z,0.00
2022-11-01T05:55:45.065Z,0.00
2022-11-01T05:56:45.096Z,0.00
2022-11-01T05:57:45.229Z,0.00
2022-11-01T05:58:45.161Z,0.00
2022-11-01T05:59:45.192Z,0.00
2022-11-01T06:00:45.248Z,0.00
2022-11-01T06:01:45.444Z,0.00
2022-11-01T06:02:45.386Z,0.00
2022-11-01T06:03:45.318Z,4.00
2022-11-01T06:04:45.350Z,4.00
2022-11-01T06:05:45.381Z,4.00
2022-11-01T06:06:45.420Z,4.00
2022-11-01T06:07:45.445Z,4.00
2022-11-01T06:08:45.477Z,8.00
2022-11-01T06:09:45.512Z,8.00
2022-11-01T06:10:45.543Z,8.00
2022-11-01T06:11:45.572Z,12.00
2022-11-01T06:12:45.609Z,12.00
2022-11-01T06:13:45.653Z,12.00
2022-11-01T06:14:45.668Z,16.00
2022-11-01T06:15:45.699Z,24.00
2022-11-01T06:16:45.733Z,28.00
2022-11-01T06:17:45.760Z,32.00
2022-11-01T06:18:45.796Z,36.00
2022-11-01T06:19:45.823Z,40.00
2022-11-01T06:20:45.855Z,44.00
2022-11-01T06:21:45.888Z,48.00
2022-11-01T06:22:45.922Z,52.00
2022-11-01T06:23:45.960Z,64.00
2022-11-01T06:24:45.983Z,68.00
2022-11-01T06:25:46.016Z,72.00
2022-11-01T06:26:46.047Z,76.00
2022-11-01T06:27:46.178Z,84.00
2022-11-01T06:29:46.160Z,104.00
2022-11-01T06:30:46.171Z,108.00
2022-11-01T06:33:46.269Z,132.00
2022-11-01T06:34:46.304Z,140.00
2022-11-01T06:35:46.334Z,144.00
2022-11-01T06:36:46.368Z,156.00
2022-11-01T06:37:46.395Z,164.00
2022-11-01T06:38:46.424Z,164.00
2022-11-01T06:39:46.460Z,172.00
2022-11-01T06:40:46.489Z,180.00
2022-11-01T06:41:46.530Z,184.00
2022-11-01T06:42:47.146Z,192.00
2022-11-01T06:43:46.584Z,200.00
2022-11-01T06:44:46.626Z,204.00
2022-11-01T06:45:46.674Z,212.00
2022-11-01T06:46:46.680Z,224.00
2022-11-01T06:47:46.810Z,224.00
2022-11-01T06:48:46.751Z,232.00
2022-11-01T06:49:46.781Z,244.00
2022-11-01T06:50:46.804Z,248.00
2022-11-01T06:52:46.868Z,264.00
2022-11-01T06:53:47.002Z,264.00
2022-11-01T06:54:46.932Z,272.00
2022-11-01T06:55:46.972Z,276.00
2022-11-01T06:56:46.997Z,284.00
2022-11-01T06:57:47.025Z,292.00
2022-11-01T06:58:47.067Z,296.00
2022-11-01T06:59:47.097Z,308.00
2022-11-01T07:00:47.222Z,320.00
2022-11-01T07:02:47.299Z,324.00
2022-11-01T07:03:47.219Z,328.00
2022-11-01T07:04:47.246Z,332.00
2022-11-01T07:05:47.284Z,332.00
2022-11-01T07:06:47.310Z,328.00
2022-11-01T07:07:47.344Z,324.00
2022-11-01T07:08:47.372Z,328.00
2022-11-01T07:09:47.410Z,336.00
2022-11-01T07:10:47.436Z,344.00
2022-11-01T07:11:47.466Z,364.00
2022-11-01T07:12:47.501Z,376.00
2022-11-01T07:13:47.528Z,388.00
2022-11-01T07:14:47.557Z,400.00
2022-11-01T07:15:47.601Z,412.00
2022-11-01T07:16:47.628Z,432.00
2022-11-01T07:17:47.658Z,444.00
2022-11-01T07:18:47.707Z,472.00
2022-11-01T07:19:47.719Z,500.00
2022-11-01T07:20:47.750Z,536.00
2022-11-01T07:21:47.779Z,572.00
2022-11-01T07:22:47.814Z,596.00
2022-11-01T07:23:47.848Z,628.00
2022-11-01T07:24:47.873Z,656.00
2022-11-01T07:25:47.909Z,680.00
2022-11-01T07:26:47.939Z,700.00
2022-11-01T07:27:47.968Z,728.00
2022-11-01T07:28:47.999Z,740.00
2022-11-01T07:29:48.033Z,764.00
2022-11-01T07:30:48.063Z,796.00
2022-11-01T07:31:48.100Z,836.00
2022-11-01T07:32:48.125Z,864.00
2022-11-01T07:33:48.162Z,880.00
2022-11-01T07:34:48.230Z,912.00
2022-11-01T07:35:48.224Z,916.00
2022-11-01T07:36:48.255Z,944.00
2022-11-01T07:37:48.303Z,992.00
2022-11-01T07:38:48.319Z,1044.00
2022-11-01T07:39:48.353Z,1068.00
2022-11-01T07:40:48.379Z,1076.00
2022-11-01T07:41:48.409Z,1084.00
2022-11-01T07:42:48.438Z,1100.00
2022-11-01T07:43:48.480Z,1128.00
2022-11-01T07:44:48.500Z,1144.00
2022-11-01T07:45:48.537Z,1176.00
2022-11-01T07:46:48.572Z,1204.00
2022-11-01T07:48:48.635Z,1228.00
2022-11-01T07:49:48.665Z,1236.00
2022-11-01T07:50:48.713Z,1244.00
2022-11-01T07:51:48.728Z,1252.00
2022-11-01T07:52:48.754Z,1260.00
2022-11-01T07:53:48.815Z,1264.00
2022-11-01T07:54:48.817Z,1272.00
2022-11-01T07:55:48.848Z,1280.00
2022-11-01T07:56:48.890Z,1288.00
2022-11-01T07:57:48.909Z,1292.00
2022-11-01T07:58:48.944Z,1304.00
2022-11-01T07:59:48.973Z,1308.00
2022-11-01T08:00:49.049Z,1320.00
2022-11-01T08:01:49.278Z,1324.00
2022-11-01T08:02:49.069Z,1332.00
2022-11-01T08:03:49.102Z,1336.00
2022-11-01T08:04:49.133Z,1340.00
2022-11-01T08:05:49.164Z,1348.00
2022-11-01T08:06:52.056Z,1352.00
2022-11-01T08:08:49.264Z,1364.00
2022-11-01T08:09:49.290Z,1368.00
2022-11-01T08:10:49.335Z,1372.00
2022-11-01T08:12:49.381Z,1384.00
2022-11-01T08:14:49.445Z,1396.00
2022-11-01T08:15:49.497Z,1400.00
2022-11-01T08:16:49.508Z,1404.00
2022-11-01T08:17:49.541Z,1412.00
2022-11-01T08:18:49.578Z,1416.00
2022-11-01T08:19:49.604Z,1424.00
2022-11-01T08:20:49.658Z,1428.00
2022-11-01T08:21:49.667Z,1432.00
2022-11-01T08:23:49.745Z,1444.00
2022-11-01T08:24:49.767Z,1448.00
2022-11-01T08:25:49.827Z,1452.00
2022-11-01T08:26:49.828Z,1456.00
2022-11-01T08:27:49.905Z,1460.00
2022-11-01T08:28:49.885Z,1468.00
2022-11-01T08:29:49.915Z,1472.00
2022-11-01T08:30:49.947Z,1480.00
2022-11-01T08:31:49.981Z,1484.00
2022-11-01T08:33:50.043Z,1492.00
2022-11-01T08:34:50.075Z,1496.00
2022-11-01T08:35:50.964Z,1496.00
2022-11-01T08:36:50.137Z,1500.00
2022-11-01T08:37:50.192Z,1504.00
2022-11-01T08:38:50.213Z,1508.00
2022-11-01T08:39:50.263Z,1508.00
2022-11-01T08:40:50.261Z,1516.00
2022-11-01T08:41:50.299Z,1516.00
2022-11-01T08:42:50.329Z,1516.00
2022-11-01T08:43:50.367Z,1520.00
2022-11-01T08:44:50.395Z,1524.00
2022-11-01T08:45:50.519Z,1528.00
2022-11-01T08:46:50.497Z,1528.00
2022-11-01T08:47:50.482Z,1532.00
2022-11-01T08:48:50.515Z,1532.00
2022-11-01T08:49:50.547Z,1536.00
2022-11-01T08:50:50.580Z,1536.00
2022-11-01T08:51:50.615Z,1540.00
2022-11-01T08:52:50.641Z,1544.00
2022-11-01T08:53:50.780Z,1544.00
2022-11-01T08:54:50.708Z,1548.00
2022-11-01T08:55:50.819Z,1552.00
2022-11-01T08:56:50.771Z,1552.00
2022-11-01T08:57:50.804Z,1556.00
2022-11-01T08:58:50.834Z,1560.00
2022-11-01T08:59:50.861Z,1560.00
2022-11-01T09:00:51.287Z,1564.00
2022-11-01T09:01:51.098Z,1572.00
2022-11-01T09:02:51.009Z,1572.00
2022-11-01T09:03:50.989Z,1572.00
2022-11-01T09:04:51.018Z,1576.00
2022-11-01T09:05:51.062Z,1576.00
2022-11-01T09:06:51.092Z,1576.00
2022-11-01T09:07:51.219Z,1576.00
2022-11-01T09:08:51.152Z,1580.00
2022-11-01T09:09:51.179Z,1580.00
2022-11-01T09:10:51.210Z,1584.00
2022-11-01T09:11:51.260Z,1588.00
2022-11-01T09:12:51.286Z,1592.00
2022-11-01T09:13:51.305Z,1588.00
2022-11-01T09:14:51.336Z,1592.00
2022-11-01T09:15:51.366Z,1592.00
2022-11-01T09:16:51.407Z,1592.00
2022-11-01T09:17:51.433Z,1596.00
2022-11-01T09:18:51.472Z,1596.00
2022-11-01T09:19:51.517Z,1600.00
2022-11-01T09:20:51.536Z,1600.00
2022-11-01T09:21:51.558Z,1596.00
2022-11-01T09:22:51.592Z,1600.00
2022-11-01T09:23:51.620Z,1604.00
2022-11-01T09:24:51.674Z,1604.00
2022-11-01T09:25:51.687Z,1600.00
2022-11-01T09:26:51.721Z,1604.00
2022-11-01T09:27:51.765Z,1604.00
2022-11-01T09:28:51.778Z,1604.00
2022-11-01T09:29:52.208Z,1604.00
2022-11-01T09:31:07.986Z,1696.00
2022-11-01T09:31:52.169Z,1708.00
2022-11-01T09:32:51.908Z,1716.00
2022-11-01T09:33:51.940Z,1712.00
2022-11-01T09:34:51.983Z,1716.00
2022-11-01T09:35:56.757Z,1716.00
2022-11-01T09:36:52.030Z,1716.00
2022-11-01T09:37:52.065Z,1720.00
2022-11-01T09:38:52.094Z,1716.00
2022-11-01T09:39:52.133Z,1716.00
2022-11-01T09:40:52.167Z,1720.00
2022-11-01T09:41:52.185Z,1720.00
2022-11-01T09:42:52.225Z,1720.00
2022-11-01T09:43:52.291Z,1724.00
2022-11-01T09:44:52.287Z,1724.00
2022-11-01T09:45:52.323Z,1728.00
2022-11-01T09:46:54.352Z,1728.00
2022-11-01T09:47:52.484Z,1724.00
2022-11-01T09:48:52.414Z,1724.00
2022-11-01T09:49:57.107Z,1728.00
2022-11-01T09:50:52.480Z,1732.00
2022-11-01T09:51:52.504Z,1728.00
2022-11-01T09:52:52.535Z,1732.00
2022-11-01T09:53:52.564Z,1728.00
2022-11-01T09:54:52.600Z,1728.00
2022-11-01T09:55:52.736Z,1728.00
2022-11-01T09:56:52.663Z,1732.00
2022-11-01T09:57:52.696Z,1732.00
2022-11-01T09:58:52.724Z,1732.00
2022-11-01T09:59:52.785Z,1728.00
2022-11-01T10:00:52.814Z,1732.00
2022-11-01T10:01:52.951Z,1732.00
2022-11-01T10:02:52.852Z,1736.00
2022-11-01T10:03:52.884Z,1740.00
2022-11-01T10:04:52.932Z,1740.00
2022-11-01T10:05:52.951Z,1736.00
2022-11-01T10:06:53.029Z,1736.00
2022-11-01T10:07:53.015Z,1740.00
2022-11-01T10:08:53.045Z,1736.00
2022-11-01T10:09:53.072Z,1740.00
2022-11-01T10:10:53.110Z,1740.00
2022-11-01T10:11:53.135Z,1740.00
2022-11-01T10:12:53.169Z,1736.00
2022-11-01T10:13:53.199Z,1740.00
2022-11-01T10:14:53.237Z,1740.00
2022-11-01T10:15:53.283Z,1740.00
2022-11-01T10:16:53.313Z,1736.00
2022-11-01T10:17:53.329Z,1744.00
2022-11-01T10:18:53.385Z,1740.00
2022-11-01T10:19:53.451Z,1740.00
2022-11-01T10:20:53.425Z,1744.00
2022-11-01T10:21:53.462Z,1744.00
2022-11-01T10:22:53.492Z,1744.00
2022-11-01T10:23:53.530Z,1740.00
2022-11-01T10:24:53.550Z,1736.00
2022-11-01T10:25:53.635Z,1744.00
2022-11-01T10:26:53.630Z,1744.00
2022-11-01T10:28:53.682Z,1744.00
2022-11-01T10:29:53.714Z,1732.00
2022-11-01T10:30:53.751Z,1748.00
2022-11-01T10:31:53.795Z,1752.00
2022-11-01T10:33:53.852Z,1752.00
2022-11-01T10:34:53.868Z,1752.00
2022-11-01T10:35:53.904Z,1752.00
2022-11-01T10:36:53.934Z,1756.00
2022-11-01T10:38:11.422Z,1756.00
2022-11-01T10:39:56.190Z,1756.00
2022-11-01T10:40:54.063Z,1756.00
2022-11-01T10:41:54.095Z,1756.00
2022-11-01T10:42:54.456Z,1760.00
2022-11-01T10:43:54.159Z,1760.00
2022-11-01T10:45:54.220Z,1764.00
2022-11-01T10:47:54.302Z,1760.00
2022-11-01T10:48:54.317Z,1760.00
2022-11-01T10:50:09.800Z,1760.00
2022-11-01T10:50:54.383Z,1760.00
2022-11-01T10:51:54.414Z,1764.00
2022-11-01T10:52:54.464Z,1760.00
2022-11-01T10:53:54.471Z,1760.00
2022-11-01T10:54:54.607Z,1760.00
2022-11-01T10:55:54.540Z,1760.00
2022-11-01T10:56:54.568Z,1756.00
2022-11-01T10:57:54.605Z,1752.00
2022-11-01T10:58:54.634Z,1752.00
2022-11-01T10:59:54.666Z,1752.00
2022-11-01T11:00:54.774Z,1752.00
2022-11-01T11:01:54.885Z,1752.00
2022-11-01T11:02:54.764Z,1752.00
2022-11-01T11:03:54.834Z,1756.00
2022-11-01T11:04:54.827Z,1756.00
2022-11-01T11:05:54.873Z,1756.00
2022-11-01T11:06:54.892Z,1760.00
2022-11-01T11:07:54.922Z,1756.00
2022-11-01T11:08:54.955Z,1756.00
2022-11-01T11:09:55.088Z,1756.00
2022-11-01T11:10:55.017Z,1752.00
2022-11-01T11:11:55.045Z,1752.00
2022-11-01T11:12:55.088Z,1752.00
2022-11-01T11:13:55.109Z,1752.00
2022-11-01T11:14:55.146Z,1748.00
2022-11-01T11:15:55.180Z,1752.00
2022-11-01T11:16:55.220Z,1748.00
2022-11-01T11:17:55.242Z,1752.00
2022-11-01T11:18:55.274Z,1752.00
2022-11-01T11:19:55.327Z,1752.00
2022-11-01T11:20:55.359Z,1752.00
2022-11-01T11:21:55.365Z,1752.00
2022-11-01T11:22:55.404Z,1752.00
2022-11-01T11:23:55.429Z,1752.00
2022-11-01T11:24:55.481Z,1752.00
2022-11-01T11:26:55.633Z,1752.00
2022-11-01T11:27:55.566Z,1752.00
2022-11-01T11:28:55.589Z,1748.00
2022-11-01T11:29:55.631Z,1748.00
2022-11-01T11:30:55.661Z,1744.00
2022-11-01T11:31:55.694Z,1748.00
2022-11-01T11:32:55.717Z,1744.00
2022-11-01T11:34:55.813Z,1748.00
2022-11-01T11:35:55.896Z,1752.00
2022-11-01T11:36:55.867Z,1748.00
2022-11-01T11:37:55.896Z,1752.00
2022-11-01T11:38:55.948Z,1748.00
2022-11-01T11:39:55.994Z,1752.00
2022-11-01T11:40:55.985Z,1748.00
2022-11-01T11:41:56.016Z,1744.00
2022-11-01T11:42:56.161Z,1744.00
2022-11-01T11:43:56.106Z,1740.00
2022-11-01T11:45:56.197Z,1744.00
2022-11-01T11:46:56.173Z,1740.00
2022-11-01T11:48:56.539Z,1740.00
2022-11-01T11:49:56.266Z,1740.00
2022-11-01T11:50:56.298Z,1736.00
2022-11-01T11:51:56.451Z,1740.00
2022-11-01T11:52:56.366Z,1740.00
2022-11-01T11:53:56.392Z,1740.00
2022-11-01T11:54:56.429Z,1740.00
2022-11-01T11:55:56.462Z,1740.00
2022-11-01T11:56:56.491Z,1740.00
2022-11-01T11:58:56.565Z,1736.00
2022-11-01T12:00:56.630Z,1740.00
2022-11-01T12:01:56.799Z,1740.00
2022-11-01T12:02:56.746Z,1736.00
2022-11-01T12:03:56.715Z,1732.00
2022-11-01T12:05:56.835Z,1732.00
2022-11-01T12:06:56.826Z,1728.00
2022-11-01T12:07:56.860Z,1728.00
2022-11-01T12:08:56.877Z,1728.00
2022-11-01T12:09:56.907Z,1732.00
2022-11-01T12:10:56.936Z,1724.00
2022-11-01T12:11:56.980Z,1728.00
2022-11-01T12:12:57.026Z,1732.00
2022-11-01T12:13:57.043Z,1728.00
2022-11-01T12:14:57.064Z,1728.00
2022-11-01T12:15:57.120Z,1732.00
2022-11-01T12:16:57.126Z,1732.00
2022-11-01T12:17:57.163Z,1728.00
2022-11-01T12:20:57.264Z,1728.00
2022-11-01T12:21:57.294Z,1728.00
2022-11-01T12:23:57.373Z,1728.00
2022-11-01T12:24:57.387Z,1728.00
2022-11-01T12:25:57.516Z,1728.00
2022-11-01T12:31:31.757Z,1728.00
2022-11-01T12:32:31.127Z,1728.00
2022-11-01T12:33:31.257Z,1728.00
2022-11-01T12:34:31.278Z,1728.00
2022-11-01T12:35:31.218Z,1728.00
2022-11-01T12:36:31.244Z,1732.00
2022-11-01T12:38:31.342Z,1728.00
2022-11-01T12:39:31.381Z,1728.00
2022-11-01T12:40:31.376Z,1732.00
2022-11-01T12:41:31.989Z,1732.00
2022-11-01T12:42:31.681Z,1732.00
2022-11-01T12:43:31.515Z,1732.00
2022-11-01T12:44:31.527Z,1736.00
2022-11-01T12:45:31.576Z,1736.00
2022-11-01T12:46:31.573Z,1740.00
2022-11-01T12:48:31.606Z,1736.00
2022-11-01T12:49:31.655Z,1740.00
2022-11-01T12:50:31.697Z,1740.00
2022-11-01T12:51:31.746Z,1736.00
2022-11-01T12:52:32.053Z,1744.00
2022-11-01T12:53:31.892Z,1744.00
2022-11-01T12:54:31.835Z,1748.00
2022-11-01T12:55:31.854Z,1752.00
2022-11-01T12:56:31.969Z,1756.00
2022-11-01T12:57:31.906Z,1756.00
2022-11-01T12:58:35.312Z,1756.00
2022-11-01T12:59:32.014Z,1760.00
2022-11-01T13:00:32.001Z,1768.00
2022-11-01T13:01:32.312Z,1772.00
2022-11-01T13:02:32.125Z,1772.00
2022-11-01T13:03:32.173Z,1776.00
2022-11-01T13:04:32.114Z,1776.00
2022-11-01T13:06:32.247Z,1796.00
2022-11-01T13:07:32.271Z,1812.00
2022-11-01T13:08:32.339Z,1828.00
2022-11-01T13:09:32.282Z,1836.00
2022-11-01T13:10:32.357Z,1852.00
2022-11-01T13:11:32.376Z,1868.00
2022-11-01T13:12:32.366Z,1888.00
2022-11-01T13:13:32.405Z,1900.00
2022-11-01T13:14:32.497Z,1912.00
2022-11-01T13:15:32.555Z,1816.00
2022-11-01T13:16:32.497Z,1936.00
2022-11-01T13:17:32.580Z,1944.00
2022-11-01T13:18:32.605Z,1956.00
2022-11-01T13:19:32.684Z,1968.00
2022-11-01T13:20:32.659Z,1976.00
2022-11-01T13:21:32.662Z,1988.00
2022-11-01T13:22:32.719Z,2004.00
2022-11-01T13:23:32.760Z,2004.00
2022-11-01T13:24:32.771Z,2020.00
2022-11-01T13:25:32.820Z,2028.00
2022-11-01T13:26:32.830Z,2040.00
2022-11-01T13:27:33.023Z,2036.00
2022-11-01T13:28:33.000Z,2048.00
2022-11-01T13:30:33.198Z,2064.00
2022-11-01T13:31:32.996Z,2068.00
2022-11-01T13:32:33.093Z,2072.00
2022-11-01T13:33:33.139Z,2076.00
2022-11-01T13:34:33.085Z,2084.00
2022-11-01T13:35:33.141Z,2092.00
2022-11-01T13:36:33.173Z,2096.00
2022-11-01T13:37:33.240Z,2104.00
2022-11-01T13:38:33.203Z,2112.00
2022-11-01T13:39:33.267Z,2048.00
2022-11-01T13:41:33.292Z,1960.00
2022-11-01T13:42:33.445Z,2124.00